createdAt,value
2022-11-13T00:00:32.755Z,99736.13
2022-11-13T00:02:59.936Z,99736.22
2022-11-13T00:05:27.075Z,99737.91
2022-11-13T00:07:54.133Z,99731.81
2022-11-13T00:10:21.193Z,99723.25
2022-11-13T00:12:48.266Z,99731.03
2022-11-13T00:15:15.370Z,99724.19
2022-11-13T00:17:42.444Z,99718.06
2022-11-13T00:20:09.497Z,99724.09
2022-11-13T00:22:36.569Z,99714.63
2022-11-13T00:25:03.635Z,99725.00
2022-11-13T00:27:31.106Z,99721.59
2022-11-13T00:29:58.166Z,99717.38
2022-11-13T00:32:26.587Z,99718.16
2022-11-13T00:34:53.671Z,99715.63
2022-11-13T00:37:20.733Z,99721.66
2022-11-13T00:39:47.788Z,99720.75
2022-11-13T00:42:14.979Z,99717.31
2022-11-13T00:44:42.178Z,99718.16
2022-11-13T00:47:09.282Z,99719.22
2022-11-13T00:49:36.394Z,99708.84
2022-11-13T00:52:03.629Z,99703.66
2022-11-13T00:54:30.688Z,99697.63
2022-11-13T00:56:57.780Z,99701.06
2022-11-13T00:59:24.847Z,99702.81
2022-11-13T01:01:51.986Z,99702.88
2022-11-13T01:04:19.134Z,99709.81
2022-11-13T01:06:46.419Z,99710.66
2022-11-13T01:09:13.639Z,99707.13
2022-11-13T01:11:40.744Z,99701.19
2022-11-13T01:14:07.834Z,99698.59
2022-11-13T01:16:34.949Z,99695.22
2022-11-13T01:19:02.031Z,99688.28
2022-11-13T01:21:29.180Z,99686.63
2022-11-13T01:23:56.357Z,99685.78
2022-11-13T01:26:23.458Z,99679.75
2022-11-13T01:28:50.530Z,99684.84
2022-11-13T01:31:17.654Z,99682.25
2022-11-13T01:33:44.718Z,99678.00
2022-11-13T01:36:11.822Z,99676.31
2022-11-13T01:38:39.105Z,99670.31
2022-11-13T01:41:06.313Z,99672.06
2022-11-13T01:43:33.380Z,99668.56
2022-11-13T01:46:00.441Z,99654.81
2022-11-13T01:48:27.857Z,99656.56
2022-11-13T01:50:55.149Z,99648.78
2022-11-13T01:53:22.212Z,99651.31
2022-11-13T01:55:49.260Z,99642.75
2022-11-13T01:58:16.327Z,99643.69
2022-11-13T02:00:43.389Z,99626.41
2022-11-13T02:03:10.765Z,99633.34
2022-11-13T02:05:37.825Z,99621.16
2022-11-13T02:08:04.884Z,99612.56
2022-11-13T02:10:31.957Z,99626.34
2022-11-13T02:12:59.035Z,99622.94
2022-11-13T02:15:26.098Z,99609.19
2022-11-13T02:17:53.189Z,99610.78
2022-11-13T02:20:20.286Z,99605.63
2022-11-13T02:22:47.378Z,99608.25
2022-11-13T02:25:14.496Z,99607.44
2022-11-13T02:27:41.551Z,99600.56
2022-11-13T02:30:11.629Z,99599.72
2022-11-13T02:32:41.164Z,99598.91
2022-11-13T02:35:08.263Z,99592.00
2022-11-13T02:37:35.337Z,99587.84
2022-11-13T02:40:02.448Z,99579.97
2022-11-13T02:42:29.550Z,99579.13
2022-11-13T02:44:56.614Z,99575.72
2022-11-13T02:47:23.682Z,99575.63
2022-11-13T02:49:50.734Z,99568.75
2022-11-13T02:52:17.874Z,99574.88
2022-11-13T02:54:44.962Z,99572.28
2022-11-13T02:57:12.039Z,99573.13
2022-11-13T02:59:39.121Z,99573.19
2022-11-13T03:02:06.242Z,99564.50
2022-11-13T03:04:57.320Z,99564.56
2022-11-13T03:07:20.456Z,99564.56
2022-11-13T03:09:47.581Z,99563.72
2022-11-13T03:12:14.657Z,99565.47
2022-11-13T03:14:41.778Z,99556.03
2022-11-13T03:17:08.838Z,99557.78
2022-11-13T03:19:35.896Z,99553.50
2022-11-13T03:22:02.970Z,99553.50
2022-11-13T03:24:30.049Z,99553.50
2022-11-13T03:26:57.159Z,99547.47
2022-11-13T03:29:24.220Z,99552.59
2022-11-13T03:31:51.281Z,99538.81
2022-11-13T03:34:18.341Z,99541.44
2022-11-13T03:36:45.403Z,99538.03
2022-11-13T03:39:12.469Z,99537.19
2022-11-13T03:41:39.545Z,99536.28
2022-11-13T03:44:06.637Z,99530.25
2022-11-13T03:46:33.705Z,99531.22
2022-11-13T03:49:00.757Z,99532.94
2022-11-13T03:51:27.916Z,99536.41
2022-11-13T03:53:54.977Z,99528.63
2022-11-13T03:56:22.094Z,99520.03
2022-11-13T03:58:49.797Z,99526.91
2022-11-13T04:01:17.039Z,99525.22
2022-11-13T04:03:44.153Z,99523.44
2022-11-13T04:06:11.294Z,99518.25
2022-11-13T04:08:38.357Z,99519.19
2022-11-13T04:11:05.418Z,99519.19
2022-11-13T04:13:32.515Z,99515.66
2022-11-13T04:15:59.590Z,99524.38
2022-11-13T04:18:27.739Z,99517.53
2022-11-13T04:20:55.098Z,99521.88
2022-11-13T04:23:22.166Z,99518.44
2022-11-13T04:25:49.232Z,99509.06
2022-11-13T04:28:16.285Z,99510.72
2022-11-13T04:30:43.342Z,99507.22
2022-11-13T04:33:10.423Z,99503.88
2022-11-13T04:35:37.532Z,99503.88
2022-11-13T04:38:04.585Z,99494.44
2022-11-13T04:40:31.641Z,99493.50
2022-11-13T04:42:58.703Z,99492.66
2022-11-13T04:45:27.612Z,99492.72
2022-11-13T04:47:54.841Z,99491.84
2022-11-13T04:50:21.906Z,99497.03
2022-11-13T04:52:49.007Z,99496.09
2022-11-13T04:55:16.072Z,99491.84
2022-11-13T04:57:43.138Z,99494.47
2022-11-13T05:00:10.279Z,99497.91
2022-11-13T05:02:37.422Z,99493.56
2022-11-13T05:05:05.357Z,99493.66
2022-11-13T05:07:32.545Z,99491.06
2022-11-13T05:09:59.673Z,99484.19
2022-11-13T05:12:26.735Z,99481.59
2022-11-13T05:14:53.792Z,99476.44
2022-11-13T05:17:20.894Z,99477.34
2022-11-13T05:19:47.971Z,99476.47
2022-11-13T05:22:15.030Z,99473.91
2022-11-13T05:24:42.125Z,99476.47
2022-11-13T05:27:14.139Z,99477.41
2022-11-13T05:29:44.093Z,99468.78
2022-11-13T05:32:11.178Z,99461.84
2022-11-13T05:34:38.239Z,99464.53
2022-11-13T05:37:05.302Z,99466.28
2022-11-13T05:39:32.383Z,99474.97
2022-11-13T05:41:59.475Z,99468.03
2022-11-13T05:44:26.537Z,99463.69
2022-11-13T05:46:53.602Z,99465.44
2022-11-13T05:49:20.673Z,99450.75
2022-11-13T05:51:47.728Z,99447.38
2022-11-13T05:54:14.786Z,99443.13
2022-11-13T05:56:41.833Z,99433.59
2022-11-13T05:59:08.894Z,99437.78
2022-11-13T06:01:35.990Z,99436.16
2022-11-13T06:04:03.131Z,99423.28
2022-11-13T06:06:30.222Z,99428.47
2022-11-13T06:08:57.294Z,99424.13
2022-11-13T06:11:24.364Z,99424.19
2022-11-13T06:13:51.423Z,99420.78
2022-11-13T06:16:18.506Z,99417.19
2022-11-13T06:18:45.568Z,99422.44
2022-11-13T06:21:12.633Z,99419.94
2022-11-13T06:23:39.745Z,99422.63
2022-11-13T06:26:06.815Z,99419.09
2022-11-13T06:28:34.014Z,99417.34
2022-11-13T06:31:01.076Z,99416.50
2022-11-13T06:33:28.174Z,99411.31
2022-11-13T06:35:55.247Z,99413.09
2022-11-13T06:38:22.309Z,99416.41
2022-11-13T06:40:49.406Z,99416.50
2022-11-13T06:43:16.471Z,99420.03
2022-11-13T06:45:43.541Z,99437.25
2022-11-13T06:48:10.602Z,99433.03
2022-11-13T06:50:37.702Z,99436.41
2022-11-13T06:53:04.777Z,99436.47
2022-11-13T06:55:32.044Z,99437.31
2022-11-13T06:57:59.123Z,99422.78
2022-11-13T07:00:26.187Z,99408.13
2022-11-13T07:02:53.268Z,99411.56
2022-11-13T07:05:20.366Z,99409.72
2022-11-13T07:07:47.467Z,99408.13
2022-11-13T07:10:14.549Z,99418.47
2022-11-13T07:12:41.714Z,99412.41
2022-11-13T07:15:08.797Z,99411.56
2022-11-13T07:17:35.888Z,99403.78
2022-11-13T07:20:02.959Z,99406.44
2022-11-13T07:22:30.658Z,99404.78
2022-11-13T07:24:58.339Z,99413.47
2022-11-13T07:27:25.447Z,99403.94
2022-11-13T07:29:52.511Z,99391.00
2022-11-13T07:32:19.618Z,99391.00
2022-11-13T07:34:46.684Z,99385.72
2022-11-13T07:37:13.817Z,99380.53
2022-11-13T07:39:40.886Z,99388.41
2022-11-13T07:42:08.002Z,99374.59
2022-11-13T07:44:55.741Z,99390.16
2022-11-13T07:47:22.323Z,99382.38
2022-11-13T07:49:49.400Z,99386.69
2022-11-13T07:52:16.468Z,99384.97
2022-11-13T07:54:43.529Z,99381.50
2022-11-13T07:57:10.602Z,99372.91
2022-11-13T07:59:37.680Z,99366.88
2022-11-13T08:02:04.777Z,99356.53
2022-11-13T08:04:31.863Z,99363.38
2022-11-13T08:06:58.953Z,99361.72
2022-11-13T08:09:26.056Z,99369.47
2022-11-13T08:11:53.114Z,99366.97
2022-11-13T08:14:20.180Z,99363.47
2022-11-13T08:16:47.254Z,99356.63
2022-11-13T08:19:14.361Z,99347.19
2022-11-13T08:21:41.442Z,99351.44
2022-11-13T08:24:08.510Z,99348.00
2022-11-13T08:26:35.571Z,99338.47
2022-11-13T08:29:02.672Z,99338.47
2022-11-13T08:31:29.802Z,99332.47
2022-11-13T08:33:56.874Z,99322.09
2022-11-13T08:36:25.537Z,99317.81
2022-11-13T08:38:52.611Z,99318.66
2022-11-13T08:41:19.669Z,99311.78
2022-11-13T08:43:46.767Z,99311.78
2022-11-13T08:46:13.841Z,99307.44
2022-11-13T08:48:40.929Z,99310.03
2022-11-13T08:51:07.994Z,99304.84
2022-11-13T08:53:35.096Z,99299.66
2022-11-13T08:56:02.349Z,99292.00
2022-11-13T08:58:29.699Z,99289.41
2022-11-13T09:00:56.907Z,99279.81
2022-11-13T09:03:24.020Z,99267.75
2022-11-13T09:05:51.114Z,99258.22
2022-11-13T09:08:18.168Z,99265.16
2022-11-13T09:10:45.246Z,99266.75
2022-11-13T09:13:12.371Z,99251.31
2022-11-13T09:15:39.506Z,99244.41
2022-11-13T09:18:06.587Z,99239.91
2022-11-13T09:20:33.663Z,99246.03
2022-11-13T09:23:00.748Z,99247.63
2022-11-13T09:25:30.343Z,99234.00
2022-11-13T09:28:01.354Z,99218.44
2022-11-13T09:30:28.436Z,99216.69
2022-11-13T09:32:55.506Z,99221.88
2022-11-13T09:35:33.815Z,99219.34
2022-11-13T09:38:00.966Z,99217.69
2022-11-13T09:40:28.093Z,99227.97
2022-11-13T09:42:55.183Z,99241.69
2022-11-13T09:45:22.269Z,99244.25
2022-11-13T09:47:49.394Z,99245.25
2022-11-13T09:50:16.487Z,99247.78
2022-11-13T09:52:43.546Z,99238.34
2022-11-13T09:55:10.650Z,99236.59
2022-11-13T09:57:37.738Z,99235.75
2022-11-13T10:00:04.902Z,99234.00
2022-11-13T10:02:32.002Z,99228.81
2022-11-13T10:04:59.079Z,99239.19
2022-11-13T10:07:26.148Z,99233.91
2022-11-13T10:09:53.238Z,99226.03
2022-11-13T10:12:20.325Z,99233.16
2022-11-13T10:14:47.404Z,99238.34
2022-11-13T10:17:14.710Z,99243.44
2022-11-13T10:19:41.775Z,99225.38
2022-11-13T10:22:31.800Z,99219.28
2022-11-13T10:24:55.901Z,99227.88
2022-11-13T10:27:22.965Z,99214.09
2022-11-13T10:29:50.033Z,99211.50
2022-11-13T10:32:17.350Z,99207.31
2022-11-13T10:34:44.508Z,99208.09
2022-11-13T10:37:12.330Z,99212.44
2022-11-13T10:39:39.408Z,99212.34
2022-11-13T10:42:06.470Z,99216.69
2022-11-13T10:44:33.597Z,99204.66
2022-11-13T10:47:00.702Z,99208.09
2022-11-13T10:49:30.765Z,99198.56
2022-11-13T10:51:57.871Z,99189.03
2022-11-13T10:54:25.030Z,99192.44
2022-11-13T10:56:52.146Z,99178.66
2022-11-13T10:59:19.233Z,99175.97
2022-11-13T11:01:46.339Z,99167.34
2022-11-13T11:04:13.413Z,99166.63
2022-11-13T11:09:29.145Z,99157.81
2022-11-13T11:12:15.018Z,99155.22
2022-11-13T11:14:42.112Z,99145.69
2022-11-13T11:17:09.176Z,99137.88
2022-11-13T11:19:36.230Z,99132.75
2022-11-13T11:22:03.315Z,99108.44
2022-11-13T11:24:30.416Z,99102.41
2022-11-13T11:26:57.664Z,99100.66
2022-11-13T11:29:24.754Z,99082.50
2022-11-13T11:31:51.833Z,99092.97
2022-11-13T11:34:18.917Z,99105.00
2022-11-13T11:36:46.002Z,99103.19
2022-11-13T11:39:13.061Z,99096.97
2022-11-13T11:41:40.219Z,99091.06
2022-11-13T11:44:07.405Z,99088.28
2022-11-13T11:46:34.911Z,99083.19
2022-11-13T11:49:02.046Z,99084.13
2022-11-13T11:51:29.270Z,99081.53
2022-11-13T11:53:56.789Z,99065.13
2022-11-13T11:56:24.202Z,99063.44
2022-11-13T11:58:51.295Z,99047.00
2022-11-13T12:01:18.391Z,99042.56
2022-11-13T12:03:45.494Z,99032.13
2022-11-13T12:06:12.768Z,99021.56
2022-11-13T12:08:39.853Z,99023.25
2022-11-13T12:11:06.927Z,99020.66
2022-11-13T12:13:33.980Z,99028.31
2022-11-13T12:16:01.137Z,99010.19
2022-11-13T12:18:28.876Z,99001.47
2022-11-13T12:20:56.202Z,98997.06
2022-11-13T12:23:23.499Z,98996.13
2022-11-13T12:25:50.563Z,98997.88
2022-11-13T12:28:17.728Z,98988.28
2022-11-13T12:30:44.994Z,98989.09
2022-11-13T12:33:12.134Z,98990.75
2022-11-13T12:35:39.291Z,98991.59
2022-11-13T12:38:06.348Z,98976.03
2022-11-13T12:40:33.418Z,98981.22
2022-11-13T12:43:00.469Z,98973.38
2022-11-13T12:45:27.570Z,98984.75
2022-11-13T12:47:54.642Z,98979.56
2022-11-13T12:50:21.725Z,98975.97
2022-11-13T12:52:48.813Z,98968.28
2022-11-13T12:55:15.897Z,98963.00
2022-11-13T12:57:42.964Z,98964.66
2022-11-13T13:00:10.168Z,98963.00
2022-11-13T13:02:37.297Z,98955.22
2022-11-13T13:05:04.671Z,98951.78
2022-11-13T13:07:31.756Z,98947.34
2022-11-13T13:09:58.988Z,98944.75
2022-11-13T13:12:26.061Z,98943.09
2022-11-13T13:14:53.154Z,98938.81
2022-11-13T13:17:20.292Z,98937.00
2022-11-13T13:19:47.346Z,98937.53
2022-11-13T13:22:14.438Z,98931.69
2022-11-13T13:24:41.724Z,98929.75
2022-11-13T13:27:08.786Z,98929.75
2022-11-13T13:29:35.947Z,98932.28
2022-11-13T13:32:05.323Z,98927.94
2022-11-13T13:34:35.380Z,98924.41
2022-11-13T13:37:02.612Z,98914.84
2022-11-13T13:39:29.780Z,98913.03
2022-11-13T13:41:56.842Z,98918.22
2022-11-13T13:44:23.974Z,98907.72
2022-11-13T13:46:51.119Z,98909.41
2022-11-13T13:49:18.261Z,98905.97
2022-11-13T13:51:45.324Z,98915.44
2022-11-13T13:54:12.424Z,98913.56
2022-11-13T13:56:39.508Z,98912.63
2022-11-13T13:59:07.102Z,98913.38
2022-11-13T14:01:34.248Z,98906.56
2022-11-13T14:04:01.402Z,98911.63
2022-11-13T14:06:28.474Z,98905.63
2022-11-13T14:08:55.542Z,98906.44
2022-11-13T14:11:22.763Z,98909.78
2022-11-13T14:13:49.844Z,98904.59
2022-11-13T14:16:17.004Z,98907.19
2022-11-13T14:18:44.096Z,98902.84
2022-11-13T14:21:11.226Z,98900.16
2022-11-13T14:23:38.445Z,98894.13
2022-11-13T14:26:05.518Z,98894.06
2022-11-13T14:28:32.629Z,98885.34
2022-11-13T14:30:59.778Z,98883.56
2022-11-13T14:33:27.271Z,98873.09
2022-11-13T14:35:55.037Z,98869.66
2022-11-13T14:38:22.136Z,98864.41
2022-11-13T14:40:49.301Z,98856.53
2022-11-13T14:43:16.384Z,98857.47
2022-11-13T14:45:43.445Z,98853.09
2022-11-13T14:48:10.509Z,98851.34
2022-11-13T14:50:37.817Z,98856.53
2022-11-13T14:53:04.914Z,98849.56
2022-11-13T14:55:32.091Z,98845.13
2022-11-13T14:57:59.149Z,98850.31
2022-11-13T15:00:26.240Z,98851.22
2022-11-13T15:02:53.366Z,98852.91
2022-11-13T15:05:20.499Z,98852.09
2022-11-13T15:07:47.689Z,98852.91
2022-11-13T15:10:15.449Z,98856.22
2022-11-13T15:12:42.724Z,98841.50
2022-11-13T15:15:09.782Z,98848.44
2022-11-13T15:17:36.859Z,98846.69
2022-11-13T15:20:09.260Z,98844.09
2022-11-13T15:22:36.980Z,98844.97
2022-11-13T15:25:04.056Z,98855.41
2022-11-13T15:27:31.454Z,98849.22
2022-11-13T15:29:58.533Z,98843.09
2022-11-13T15:32:28.938Z,98850.97
2022-11-13T15:34:56.052Z,98851.97
2022-11-13T15:37:23.130Z,98856.81
2022-11-13T15:39:50.268Z,98854.03
2022-11-13T15:42:17.326Z,98855.13
2022-11-13T15:44:44.413Z,98861.25
2022-11-13T15:47:11.486Z,98857.81
2022-11-13T15:49:40.709Z,98859.66
2022-11-13T15:52:14.009Z,98866.72
2022-11-13T15:54:41.079Z,98868.47
2022-11-13T15:57:08.202Z,98868.66
2022-11-13T15:59:35.267Z,98867.06
2022-11-13T16:02:03.400Z,98883.47
2022-11-13T16:04:50.848Z,98872.38
2022-11-13T16:07:17.637Z,98867.19
2022-11-13T16:09:44.822Z,98864.66
2022-11-13T16:12:11.942Z,98874.22
2022-11-13T16:14:39.074Z,98869.97
2022-11-13T16:17:06.268Z,98869.97
2022-11-13T16:19:33.445Z,98865.72
2022-11-13T16:22:00.501Z,98870.97
2022-11-13T16:24:27.580Z,98869.22
2022-11-13T16:26:54.666Z,98870.16
2022-11-13T16:29:21.805Z,98871.06
2022-11-13T16:31:48.939Z,98866.81
2022-11-13T16:34:16.031Z,98871.25
2022-11-13T16:36:43.202Z,98874.69
2022-11-13T16:39:10.418Z,98880.69
2022-11-13T16:41:37.489Z,98876.44
2022-11-13T16:44:04.550Z,98883.28
2022-11-13T16:46:31.690Z,98880.81
2022-11-13T16:48:58.757Z,98879.13
2022-11-13T16:51:25.831Z,98880.81
2022-11-13T16:53:52.945Z,98874.84
2022-11-13T16:56:20.112Z,98867.06
2022-11-13T16:58:47.179Z,98868.94
2022-11-13T17:01:14.418Z,98871.44
2022-11-13T17:03:42.362Z,98872.47
2022-11-13T17:06:09.439Z,98859.50
2022-11-13T17:08:36.489Z,98859.50
2022-11-13T17:11:03.581Z,98852.56
2022-11-13T17:13:31.598Z,98845.69
2022-11-13T17:15:58.982Z,98854.41
2022-11-13T17:18:26.031Z,98857.00
2022-11-13T17:20:53.126Z,98857.94
2022-11-13T17:23:20.191Z,98857.94
2022-11-13T17:25:47.893Z,98858.75
2022-11-13T17:28:16.469Z,98862.19
2022-11-13T17:30:43.579Z,98866.53
2022-11-13T17:33:10.665Z,98868.31
2022-11-13T17:35:37.739Z,98859.69
2022-11-13T17:38:04.926Z,98867.53
2022-11-13T17:40:31.998Z,98866.72
2022-11-13T17:42:59.091Z,98871.00
2022-11-13T17:45:26.164Z,98872.84
2022-11-13T17:47:53.262Z,98868.47
2022-11-13T17:50:20.402Z,98873.66
2022-11-13T17:52:47.487Z,98869.31
2022-11-13T17:55:14.742Z,98871.19
2022-11-13T17:57:41.950Z,98868.66
2022-11-13T18:00:09.575Z,98867.81
2022-11-13T18:02:36.689Z,98866.25
2022-11-13T18:05:04.658Z,98862.75
2022-11-13T18:07:31.803Z,98859.22
2022-11-13T18:09:58.912Z,98857.63
2022-11-13T18:12:25.973Z,98859.41
2022-11-13T18:14:53.040Z,98857.63
2022-11-13T18:17:20.209Z,98855.97
2022-11-13T18:19:47.302Z,98858.56
2022-11-13T18:22:14.375Z,98859.50
2022-11-13T18:24:41.541Z,98857.84
2022-11-13T18:27:08.650Z,98850.91
2022-11-13T18:29:35.718Z,98853.50
2022-11-13T18:32:02.837Z,98852.75
2022-11-13T18:34:30.063Z,98845.78
2022-11-13T18:36:57.591Z,98845.06
2022-11-13T18:39:24.659Z,98848.50
2022-11-13T18:41:51.749Z,98838.13
2022-11-13T18:44:18.809Z,98839.88
2022-11-13T18:46:45.869Z,98834.69
2022-11-13T18:49:12.987Z,98827.75
2022-11-13T18:51:40.089Z,98837.28
2022-11-13T18:54:11.519Z,98834.78
2022-11-13T18:56:40.656Z,98828.75
2022-11-13T18:59:07.874Z,98822.75
2022-11-13T19:01:36.467Z,98823.50
2022-11-13T19:06:52.118Z,98820.16
2022-11-13T19:09:19.223Z,98818.31
2022-11-13T19:11:46.303Z,98819.34
2022-11-13T19:14:13.369Z,98823.59
2022-11-13T19:16:40.425Z,98813.31
2022-11-13T19:19:07.976Z,98813.31
2022-11-13T19:21:35.138Z,98809.97
2022-11-13T19:24:02.568Z,98811.63
2022-11-13T19:26:29.664Z,98806.44
2022-11-13T19:28:56.801Z,98808.31
2022-11-13T19:31:24.011Z,98807.38
2022-11-13T19:33:53.811Z,98801.38
2022-11-13T19:36:21.694Z,98802.31
2022-11-13T19:38:48.808Z,98800.53
2022-11-13T19:41:15.980Z,98803.31
2022-11-13T19:43:44.922Z,98805.84
2022-11-13T19:46:12.063Z,98805.84
2022-11-13T19:48:39.301Z,98800.53
2022-11-13T19:51:06.541Z,98795.34
2022-11-13T19:53:36.803Z,98798.06
2022-11-13T19:56:03.940Z,98794.53
2022-11-13T19:58:31.398Z,98793.69
2022-11-13T20:01:00.970Z,98796.38
2022-11-13T20:03:28.103Z,98793.78
2022-11-13T20:05:55.318Z,98795.47
2022-11-13T20:08:26.843Z,98793.78
2022-11-13T20:10:55.204Z,98798.97
2022-11-13T20:13:22.391Z,98787.03
2022-11-13T20:15:52.170Z,98779.34
2022-11-13T20:18:19.263Z,98776.69
2022-11-13T20:20:49.202Z,98781.94
2022-11-13T20:23:20.387Z,98777.50
2022-11-13T20:25:47.463Z,98777.50
2022-11-13T20:28:14.539Z,98781.00
2022-11-13T20:30:41.601Z,98762.97
2022-11-13T20:33:08.663Z,98774.09
2022-11-13T20:35:35.749Z,98769.81
2022-11-13T20:38:02.805Z,98767.22
2022-11-13T20:40:29.869Z,98762.03
2022-11-13T20:42:57.010Z,98762.88
2022-11-13T20:45:24.074Z,98756.84
2022-11-13T20:47:51.139Z,98752.59
2022-11-13T20:50:18.217Z,98766.50
2022-11-13T20:52:45.295Z,98766.50
2022-11-13T20:55:12.354Z,98772.56
2022-11-13T20:57:41.027Z,98770.09
2022-11-13T21:00:08.301Z,98776.94
2022-11-13T21:02:35.407Z,98768.31
2022-11-13T21:05:02.486Z,98768.31
2022-11-13T21:07:29.690Z,98769.38
2022-11-13T21:09:57.063Z,98770.19
2022-11-13T21:12:24.143Z,98772.03
2022-11-13T21:14:52.049Z,98766.97
2022-11-13T21:17:19.147Z,98769.56
2022-11-13T21:19:46.211Z,98762.50
2022-11-13T21:22:13.358Z,98763.44
2022-11-13T21:24:40.458Z,98760.09
2022-11-13T21:27:07.548Z,98753.19
2022-11-13T21:29:34.634Z,98748.06
2022-11-13T21:32:01.693Z,98747.25
2022-11-13T21:34:28.772Z,98735.22
2022-11-13T21:36:55.863Z,98740.41
2022-11-13T21:39:22.925Z,98742.16
2022-11-13T21:41:49.997Z,98730.97
2022-11-13T21:44:17.058Z,98728.38
2022-11-13T21:46:45.738Z,98725.78
2022-11-13T21:49:13.181Z,98721.50
2022-11-13T21:51:40.330Z,98720.63
2022-11-13T21:54:07.393Z,98716.44
2022-11-13T21:56:34.458Z,98714.78
2022-11-13T21:59:01.598Z,98706.06
2022-11-13T22:01:32.381Z,98710.31
2022-11-13T22:04:05.486Z,98709.50
2022-11-13T22:06:32.620Z,98701.84
2022-11-13T22:08:59.729Z,98703.66
2022-11-13T22:11:26.838Z,98699.44
2022-11-13T22:13:53.921Z,98692.47
2022-11-13T22:16:21.029Z,98699.31
2022-11-13T22:18:48.117Z,98696.72
2022-11-13T22:21:15.215Z,98699.31
2022-11-13T22:23:42.346Z,98692.47
2022-11-13T22:26:09.660Z,98697.94
2022-11-13T22:28:36.723Z,98700.44
2022-11-13T22:31:03.820Z,98697.84
2022-11-13T22:33:30.901Z,98696.91
2022-11-13T22:35:57.981Z,98699.59
2022-11-13T22:38:25.073Z,98694.53
2022-11-13T22:40:52.146Z,98685.91
2022-11-13T22:43:19.205Z,98690.25
2022-11-13T22:45:46.265Z,98685.19
2022-11-13T22:48:13.337Z,98687.78
2022-11-13T22:50:40.398Z,98684.34
2022-11-13T22:53:07.518Z,98681.75
2022-11-13T22:55:34.623Z,98680.00
2022-11-13T22:58:01.687Z,98679.06
2022-11-13T23:00:28.782Z,98678.13
2022-11-13T23:02:55.849Z,98673.06
2022-11-13T23:05:22.997Z,98674.00
2022-11-13T23:07:50.208Z,98677.47
2022-11-13T23:10:17.280Z,98676.59
2022-11-13T23:12:44.350Z,98680.94
2022-11-13T23:15:11.409Z,98673.88
2022-11-13T23:17:38.532Z,98673.88
2022-11-13T23:20:05.587Z,98669.63
2022-11-13T23:22:32.658Z,98665.28
2022-11-13T23:24:59.797Z,98653.28
2022-11-13T23:27:26.928Z,98651.50
2022-11-13T23:29:54.050Z,98661.03
2022-11-13T23:32:21.127Z,98648.81
2022-11-13T23:35:03.347Z,98644.56
2022-11-13T23:37:30.426Z,98641.16
2022-11-13T23:39:57.524Z,98636.81
2022-11-13T23:42:39.649Z,98648.91
2022-11-13T23:45:11.643Z,98646.34
2022-11-13T23:47:38.713Z,98642.91
2022-11-13T23:50:05.789Z,98630.78
2022-11-13T23:52:32.869Z,98628.28
2022-11-13T23:54:59.938Z,98630.88
2022-11-13T23:57:27.011Z,98630.03
2022-11-13T23:59:54.083Z,98626.63
